sensor_id;sensor_type;location;lat;lon;timestamp;temperature;humidity
49052;DHT22;34866;48.670;18.260;2022-12-18T00:01:48;140.80;2176.00
49052;DHT22;34866;48.670;18.260;2022-12-18T00:04:22;140.80;2176.00
49052;DHT22;34866;48.670;18.260;2022-12-18T00:06:48;140.90;2176.00
49052;DHT22;34866;48.670;18.260;2022-12-18T00:09:13;140.90;2176.00
49052;DHT22;34866;48.670;18.260;2022-12-18T00:11:40;141.00;2176.00
49052;DHT22;34866;48.670;18.260;2022-12-18T00:14:05;141.00;2176.00
49052;DHT22;34866;48.670;18.260;2022-12-18T00:16:31;140.90;2176.00
49052;DHT22;34866;48.670;18.260;2022-12-18T00:18:59;140.90;2176.00
49052;DHT22;34866;48.670;18.260;2022-12-18T00:21:26;141.00;2176.00
49052;DHT22;34866;48.670;18.260;2022-12-18T00:23:52;140.90;2176.00
49052;DHT22;34866;48.670;18.260;2022-12-18T00:26:21;141.00;2176.00
49052;DHT22;34866;48.670;18.260;2022-12-18T00:28:48;141.10;2176.00
49052;DHT22;34866;48.670;18.260;2022-12-18T00:31:16;141.00;2176.00
49052;DHT22;34866;48.670;18.260;2022-12-18T00:33:42;141.00;2176.00
49052;DHT22;34866;48.670;18.260;2022-12-18T00:36:16;141.00;2176.00
49052;DHT22;34866;48.670;18.260;2022-12-18T00:38:43;141.10;2176.00
49052;DHT22;34866;48.670;18.260;2022-12-18T00:41:13;141.10;2176.00
49052;DHT22;34866;48.670;18.260;2022-12-18T00:43:59;141.10;2176.00
49052;DHT22;34866;48.670;18.260;2022-12-18T00:46:25;141.10;2176.00
49052;DHT22;34866;48.670;18.260;2022-12-18T00:48:50;141.10;2176.00
49052;DHT22;34866;48.670;18.260;2022-12-18T00:51:16;141.10;2176.00
49052;DHT22;34866;48.670;18.260;2022-12-18T00:53:41;141.00;2176.00
49052;DHT22;34866;48.670;18.260;2022-12-18T00:56:07;141.10;2176.00
49052;DHT22;34866;48.670;18.260;2022-12-18T00:58:35;141.10;2176.00
49052;DHT22;34866;48.670;18.260;2022-12-18T01:01:03;141.10;2176.00
49052;DHT22;34866;48.670;18.260;2022-12-18T01:03:29;141.10;2176.00
49052;DHT22;34866;48.670;18.260;2022-12-18T01:05:56;141.20;2176.00
49052;DHT22;34866;48.670;18.260;2022-12-18T01:08:21;141.30;2176.00
49052;DHT22;34866;48.670;18.260;2022-12-18T01:10:47;141.20;2176.00
49052;DHT22;34866;48.670;18.260;2022-12-18T01:13:13;141.30;2176.00
49052;DHT22;34866;48.670;18.260;2022-12-18T01:15:39;141.30;2176.00
49052;DHT22;34866;48.670;18.260;2022-12-18T01:18:05;141.50;2176.00
49052;DHT22;34866;48.670;18.260;2022-12-18T01:20:32;141.50;2176.00
49052;DHT22;34866;48.670;18.260;2022-12-18T01:22:57;141.50;2176.00
49052;DHT22;34866;48.670;18.260;2022-12-18T01:25:23;141.60;2176.00
49052;DHT22;34866;48.670;18.260;2022-12-18T01:27:48;141.70;2176.00
49052;DHT22;34866;48.670;18.260;2022-12-18T01:30:14;166.40;2176.00
49052;DHT22;34866;48.670;18.260;2022-12-18T01:32:40;166.40;2176.00
49052;DHT22;34866;48.670;18.260;2022-12-18T01:35:06;166.40;2176.00
49052;DHT22;34866;48.670;18.260;2022-12-18T01:37:32;166.50;2176.00
49052;DHT22;34866;48.670;18.260;2022-12-18T01:39:58;166.40;2176.00
49052;DHT22;34866;48.670;18.260;2022-12-18T01:42:23;166.40;2176.00
49052;DHT22;34866;48.670;18.260;2022-12-18T01:47:39;166.60;2176.00
49052;DHT22;34866;48.670;18.260;2022-12-18T01:50:13;166.70;2176.00
49052;DHT22;34866;48.670;18.260;2022-12-18T01:52:42;166.80;2176.00
49052;DHT22;34866;48.670;18.260;2022-12-18T01:55:10;166.90;2176.00
49052;DHT22;34866;48.670;18.260;2022-12-18T01:57:37;166.80;2176.00
49052;DHT22;34866;48.670;18.260;2022-12-18T02:00:13;166.80;2176.00
49052;DHT22;34866;48.670;18.260;2022-12-18T02:02:41;166.80;2176.00
49052;DHT22;34866;48.670;18.260;2022-12-18T02:05:07;166.90;2176.00
49052;DHT22;34866;48.670;18.260;2022-12-18T02:16:34;166.80;2176.00
49052;DHT22;34866;48.670;18.260;2022-12-18T02:24:46;166.90;2176.00
49052;DHT22;34866;48.670;18.260;2022-12-18T02:27:15;167.00;2176.00
49052;DHT22;34866;48.670;18.260;2022-12-18T02:29:55;167.00;2176.00
49052;DHT22;34866;48.670;18.260;2022-12-18T02:32:46;167.00;2176.00
49052;DHT22;34866;48.670;18.260;2022-12-18T02:35:16;167.10;2176.00
49052;DHT22;34866;48.670;18.260;2022-12-18T02:37:43;167.00;2176.00
49052;DHT22;34866;48.670;18.260;2022-12-18T02:40:11;167.00;2176.00
49052;DHT22;34866;48.670;18.260;2022-12-18T02:42:39;166.90;2176.00
49052;DHT22;34866;48.670;18.260;2022-12-18T02:45:05;167.00;2176.00
49052;DHT22;34866;48.670;18.260;2022-12-18T02:47:33;166.90;2176.00
49052;DHT22;34866;48.670;18.260;2022-12-18T02:50:11;166.90;2176.00
49052;DHT22;34866;48.670;18.260;2022-12-18T03:01:54;166.90;2176.00
49052;DHT22;34866;48.670;18.260;2022-12-18T03:04:28;166.90;2176.00
49052;DHT22;34866;48.670;18.260;2022-12-18T03:06:58;166.90;2176.00
49052;DHT22;34866;48.670;18.260;2022-12-18T03:09:31;166.80;2176.00
49052;DHT22;34866;48.670;18.260;2022-12-18T03:12:04;166.90;2176.00
49052;DHT22;34866;48.670;18.260;2022-12-18T03:14:57;166.80;2176.00
49052;DHT22;34866;48.670;18.260;2022-12-18T03:17:27;166.80;2176.00
49052;DHT22;34866;48.670;18.260;2022-12-18T03:19:56;166.90;2176.00
49052;DHT22;34866;48.670;18.260;2022-12-18T03:22:24;166.90;2176.00
49052;DHT22;34866;48.670;18.260;2022-12-18T03:24:53;166.90;2176.00
49052;DHT22;34866;48.670;18.260;2022-12-18T03:27:20;166.90;2176.00
49052;DHT22;34866;48.670;18.260;2022-12-18T03:30:02;167.00;2176.00
49052;DHT22;34866;48.670;18.260;2022-12-18T03:32:38;167.00;2176.00
49052;DHT22;34866;48.670;18.260;2022-12-18T03:35:08;167.00;2176.00
49052;DHT22;34866;48.670;18.260;2022-12-18T03:37:36;167.10;2176.00
49052;DHT22;34866;48.670;18.260;2022-12-18T03:40:03;167.20;2176.00
49052;DHT22;34866;48.670;18.260;2022-12-18T03:42:39;167.20;2176.00
49052;DHT22;34866;48.670;18.260;2022-12-18T03:45:31;192.00;2176.00
49052;DHT22;34866;48.670;18.260;2022-12-18T03:48:04;192.00;2176.00
49052;DHT22;34866;48.670;18.260;2022-12-18T03:56:05;192.00;2176.00
49052;DHT22;34866;48.670;18.260;2022-12-18T03:58:32;192.10;2176.00
49052;DHT22;34866;48.670;18.260;2022-12-18T04:01:02;192.10;2176.00
49052;DHT22;34866;48.670;18.260;2022-12-18T04:03:29;192.10;2176.00
49052;DHT22;34866;48.670;18.260;2022-12-18T04:05:58;192.10;2176.00
49052;DHT22;34866;48.670;18.260;2022-12-18T04:08:26;167.30;2176.00
49052;DHT22;34866;48.670;18.260;2022-12-18T04:10:52;167.30;2176.00
49052;DHT22;34866;48.670;18.260;2022-12-18T04:13:27;167.30;2176.00
49052;DHT22;34866;48.670;18.260;2022-12-18T04:15:53;167.30;2176.00
49052;DHT22;34866;48.670;18.260;2022-12-18T04:18:19;167.20;2176.00
49052;DHT22;34866;48.670;18.260;2022-12-18T04:20:45;167.30;2176.00
49052;DHT22;34866;48.670;18.260;2022-12-18T04:23:11;167.20;2176.00
49052;DHT22;34866;48.670;18.260;2022-12-18T04:25:36;167.10;2176.00
49052;DHT22;34866;48.670;18.260;2022-12-18T04:28:02;167.20;2176.00
49052;DHT22;34866;48.670;18.260;2022-12-18T04:30:28;167.30;2176.00
49052;DHT22;34866;48.670;18.260;2022-12-18T04:32:53;192.10;2176.00
49052;DHT22;34866;48.670;18.260;2022-12-18T04:35:19;192.20;2176.00
49052;DHT22;34866;48.670;18.260;2022-12-18T04:37:45;192.00;2176.00
49052;DHT22;34866;48.670;18.260;2022-12-18T04:40:11;167.20;2176.00
49052;DHT22;34866;48.670;18.260;2022-12-18T04:42:37;167.20;2176.00
49052;DHT22;34866;48.670;18.260;2022-12-18T04:45:04;167.00;2176.00
49052;DHT22;34866;48.670;18.260;2022-12-18T04:47:30;167.00;2176.00
49052;DHT22;34866;48.670;18.260;2022-12-18T04:49:56;166.90;2176.00
49052;DHT22;34866;48.670;18.260;2022-12-18T04:52:21;166.90;2176.00
49052;DHT22;34866;48.670;18.260;2022-12-18T04:54:47;167.00;2176.00
49052;DHT22;34866;48.670;18.260;2022-12-18T04:57:13;166.90;2176.00
49052;DHT22;34866;48.670;18.260;2022-12-18T04:59:38;167.00;2176.00
49052;DHT22;34866;48.670;18.260;2022-12-18T05:02:04;166.90;2176.00
49052;DHT22;34866;48.670;18.260;2022-12-18T05:04:29;167.10;2176.00
49052;DHT22;34866;48.670;18.260;2022-12-18T05:07:02;192.00;2176.00
49052;DHT22;34866;48.670;18.260;2022-12-18T05:09:28;192.20;2176.00
49052;DHT22;34866;48.670;18.260;2022-12-18T05:11:53;192.20;2176.00
49052;DHT22;34866;48.670;18.260;2022-12-18T05:14:19;192.30;2176.00
49052;DHT22;34866;48.670;18.260;2022-12-18T05:16:45;192.30;2176.00
49052;DHT22;34866;48.670;18.260;2022-12-18T05:19:17;192.40;2176.00
49052;DHT22;34866;48.670;18.260;2022-12-18T05:21:43;192.40;2176.00
49052;DHT22;34866;48.670;18.260;2022-12-18T05:24:08;192.40;2176.00
49052;DHT22;34866;48.670;18.260;2022-12-18T05:26:34;192.40;2176.00
49052;DHT22;34866;48.670;18.260;2022-12-18T05:29:00;192.50;2176.00
49052;DHT22;34866;48.670;18.260;2022-12-18T05:31:25;192.40;2176.00
49052;DHT22;34866;48.670;18.260;2022-12-18T05:33:51;192.40;2176.00
49052;DHT22;34866;48.670;18.260;2022-12-18T05:36:16;192.50;2176.00
49052;DHT22;34866;48.670;18.260;2022-12-18T05:38:42;192.60;2176.00
49052;DHT22;34866;48.670;18.260;2022-12-18T05:41:09;192.60;2176.00
49052;DHT22;34866;48.670;18.260;2022-12-18T05:43:36;192.60;2176.00
49052;DHT22;34866;48.670;18.260;2022-12-18T05:46:12;192.80;2176.00
49052;DHT22;34866;48.670;18.260;2022-12-18T05:48:38;192.80;2176.00
49052;DHT22;34866;48.670;18.260;2022-12-18T05:51:09;192.80;2176.00
49052;DHT22;34866;48.670;18.260;2022-12-18T05:53:35;192.80;2176.00
49052;DHT22;34866;48.670;18.260;2022-12-18T05:56:04;217.60;2176.00
49052;DHT22;34866;48.670;18.260;2022-12-18T05:58:31;192.90;2176.00
49052;DHT22;34866;48.670;18.260;2022-12-18T06:00:56;217.60;2176.00
49052;DHT22;34866;48.670;18.260;2022-12-18T06:03:22;217.80;2150.40
49052;DHT22;34866;48.670;18.260;2022-12-18T06:05:48;217.70;2150.40
49052;DHT22;34866;48.670;18.260;2022-12-18T06:08:14;217.80;2150.40
49052;DHT22;34866;48.670;18.260;2022-12-18T06:10:40;217.90;2150.40
49052;DHT22;34866;48.670;18.260;2022-12-18T06:13:06;217.70;2150.40
49052;DHT22;34866;48.670;18.260;2022-12-18T06:15:32;217.90;2150.40
49052;DHT22;34866;48.670;18.260;2022-12-18T06:17:59;217.90;2150.40
49052;DHT22;34866;48.670;18.260;2022-12-18T06:20:25;218.00;2150.40
49052;DHT22;34866;48.670;18.260;2022-12-18T06:22:51;218.10;2150.40
49052;DHT22;34866;48.670;18.260;2022-12-18T06:25:16;218.20;2150.40
49052;DHT22;34866;48.670;18.260;2022-12-18T06:27:42;218.30;2150.40
49052;DHT22;34866;48.670;18.260;2022-12-18T06:30:08;218.30;2150.40
49052;DHT22;34866;48.670;18.260;2022-12-18T06:32:34;218.40;2150.40
49052;DHT22;34866;48.670;18.260;2022-12-18T06:35:00;218.40;2150.40
49052;DHT22;34866;48.670;18.260;2022-12-18T06:37:25;243.20;2150.40
49052;DHT22;34866;48.670;18.260;2022-12-18T06:39:52;218.50;2150.40
49052;DHT22;34866;48.670;18.260;2022-12-18T06:42:18;218.50;2150.40
49052;DHT22;34866;48.670;18.260;2022-12-18T06:44:44;218.30;2150.40
49052;DHT22;34866;48.670;18.260;2022-12-18T06:47:09;218.40;2150.40
49052;DHT22;34866;48.670;18.260;2022-12-18T06:49:35;218.30;2150.40
49052;DHT22;34866;48.670;18.260;2022-12-18T06:52:01;218.30;2150.40
49052;DHT22;34866;48.670;18.260;2022-12-18T06:54:26;218.40;2150.40
49052;DHT22;34866;48.670;18.260;2022-12-18T06:56:52;218.40;2150.40
49052;DHT22;34866;48.670;18.260;2022-12-18T06:59:17;243.20;2150.40
49052;DHT22;34866;48.670;18.260;2022-12-18T07:01:43;218.50;2150.40
49052;DHT22;34866;48.670;18.260;2022-12-18T07:04:09;218.40;2150.40
49052;DHT22;34866;48.670;18.260;2022-12-18T07:06:34;218.40;2150.40
49052;DHT22;34866;48.670;18.260;2022-12-18T07:09:00;218.30;2150.40
49052;DHT22;34866;48.670;18.260;2022-12-18T07:11:25;218.20;2150.40
49052;DHT22;34866;48.670;18.260;2022-12-18T07:13:52;218.20;2150.40
49052;DHT22;34866;48.670;18.260;2022-12-18T07:16:19;218.00;2150.40
49052;DHT22;34866;48.670;18.260;2022-12-18T07:18:45;217.80;2150.40
49052;DHT22;34866;48.670;18.260;2022-12-18T07:21:13;217.80;2150.40
49052;DHT22;34866;48.670;18.260;2022-12-18T07:23:39;217.90;2150.40
49052;DHT22;34866;48.670;18.260;2022-12-18T07:26:07;218.00;2150.40
49052;DHT22;34866;48.670;18.260;2022-12-18T07:28:35;217.80;2150.40
49052;DHT22;34866;48.670;18.260;2022-12-18T07:31:10;192.90;2176.00
49052;DHT22;34866;48.670;18.260;2022-12-18T07:33:36;192.80;2176.00
49052;DHT22;34866;48.670;18.260;2022-12-18T07:36:03;192.90;2022.40
49052;DHT22;34866;48.670;18.260;2022-12-18T07:38:30;192.90;2176.00
49052;DHT22;34866;48.670;18.260;2022-12-18T07:41:22;192.90;1843.20
49052;DHT22;34866;48.670;18.260;2022-12-18T07:43:48;192.90;2176.00
49052;DHT22;34866;48.670;18.260;2022-12-18T07:46:15;192.90;2176.00
49052;DHT22;34866;48.670;18.260;2022-12-18T07:48:42;192.90;2176.00
49052;DHT22;34866;48.670;18.260;2022-12-18T07:51:08;192.90;2176.00
49052;DHT22;34866;48.670;18.260;2022-12-18T07:53:35;192.80;2176.00
49052;DHT22;34866;48.670;18.260;2022-12-18T07:56:20;192.80;2176.00
49052;DHT22;34866;48.670;18.260;2022-12-18T07:58:45;192.70;2176.00
49052;DHT22;34866;48.670;18.260;2022-12-18T08:01:11;192.70;2176.00
49052;DHT22;34866;48.670;18.260;2022-12-18T08:03:38;192.60;2176.00
49052;DHT22;34866;48.670;18.260;2022-12-18T08:06:07;192.50;2176.00
49052;DHT22;34866;48.670;18.260;2022-12-18T08:08:33;192.30;2176.00
49052;DHT22;34866;48.670;18.260;2022-12-18T08:10:59;192.20;2176.00
49052;DHT22;34866;48.670;18.260;2022-12-18T08:13:26;192.10;2176.00
49052;DHT22;34866;48.670;18.260;2022-12-18T08:16:06;192.00;2176.00
49052;DHT22;34866;48.670;18.260;2022-12-18T08:18:33;167.30;2176.00
49052;DHT22;34866;48.670;18.260;2022-12-18T08:21:18;192.10;2176.00
49052;DHT22;34866;48.670;18.260;2022-12-18T08:23:43;167.20;2176.00
49052;DHT22;34866;48.670;18.260;2022-12-18T08:26:13;167.00;2176.00
49052;DHT22;34866;48.670;18.260;2022-12-18T08:28:39;167.00;2176.00
49052;DHT22;34866;48.670;18.260;2022-12-18T08:31:06;141.50;2176.00
49052;DHT22;34866;48.670;18.260;2022-12-18T08:33:32;166.90;2176.00
49052;DHT22;34866;48.670;18.260;2022-12-18T08:36:00;166.70;2176.00
49052;DHT22;34866;48.670;18.260;2022-12-18T08:38:27;166.70;2176.00
49052;DHT22;34866;48.670;18.260;2022-12-18T08:41:04;166.70;2176.00
49052;DHT22;34866;48.670;18.260;2022-12-18T08:43:30;166.60;2176.00
49052;DHT22;34866;48.670;18.260;2022-12-18T08:46:14;166.50;2176.00
49052;DHT22;34866;48.670;18.260;2022-12-18T08:48:41;166.50;2176.00
49052;DHT22;34866;48.670;18.260;2022-12-18T08:51:07;166.50;2176.00
49052;DHT22;34866;48.670;18.260;2022-12-18T08:53:35;141.70;2176.00
49052;DHT22;34866;48.670;18.260;2022-12-18T08:56:01;141.60;2176.00
49052;DHT22;34866;48.670;18.260;2022-12-18T08:58:27;141.60;2176.00
49052;DHT22;34866;48.670;18.260;2022-12-18T09:00:53;141.40;2176.00
49052;DHT22;34866;48.670;18.260;2022-12-18T09:03:20;141.50;2176.00
49052;DHT22;34866;48.670;18.260;2022-12-18T09:05:48;141.30;2176.00
49052;DHT22;34866;48.670;18.260;2022-12-18T09:08:13;141.20;2176.00
49052;DHT22;34866;48.670;18.260;2022-12-18T09:10:44;141.20;2176.00
49052;DHT22;34866;48.670;18.260;2022-12-18T09:13:10;141.10;2176.00
49052;DHT22;34866;48.670;18.260;2022-12-18T09:15:47;140.80;2176.00
49052;DHT22;34866;48.670;18.260;2022-12-18T09:18:14;116.10;2176.00
49052;DHT22;34866;48.670;18.260;2022-12-18T09:20:40;116.10;2176.00
49052;DHT22;34866;48.670;18.260;2022-12-18T09:23:06;140.80;2176.00
49052;DHT22;34866;48.670;18.260;2022-12-18T09:25:33;140.80;2176.00
49052;DHT22;34866;48.670;18.260;2022-12-18T09:28:11;140.80;2176.00
49052;DHT22;34866;48.670;18.260;2022-12-18T09:30:41;140.80;2176.00
49052;DHT22;34866;48.670;18.260;2022-12-18T09:33:07;116.10;2176.00
49052;DHT22;34866;48.670;18.260;2022-12-18T09:35:38;116.00;2176.00
49052;DHT22;34866;48.670;18.260;2022-12-18T09:38:04;115.90;2176.00
49052;DHT22;34866;48.670;18.260;2022-12-18T09:40:36;115.90;2176.00
49052;DHT22;34866;48.670;18.260;2022-12-18T09:43:06;115.90;2176.00
49052;DHT22;34866;48.670;18.260;2022-12-18T09:45:42;115.80;2176.00
49052;DHT22;34866;48.670;18.260;2022-12-18T09:48:26;115.80;2176.00
49052;DHT22;34866;48.670;18.260;2022-12-18T09:50:55;115.80;2176.00
49052;DHT22;34866;48.670;18.260;2022-12-18T09:53:26;115.70;2176.00
49052;DHT22;34866;48.670;18.260;2022-12-18T09:55:54;115.60;2176.00
49052;DHT22;34866;48.670;18.260;2022-12-18T09:58:33;115.50;2176.00
49052;DHT22;34866;48.670;18.260;2022-12-18T10:01:01;115.40;2176.00
49052;DHT22;34866;48.670;18.260;2022-12-18T10:03:26;115.30;2176.00
49052;DHT22;34866;48.670;18.260;2022-12-18T10:06:13;115.30;2176.00
49052;DHT22;34866;48.670;18.260;2022-12-18T10:08:49;115.30;2176.00
49052;DHT22;34866;48.670;18.260;2022-12-18T10:14:34;90.40;2073.60
49052;DHT22;34866;48.670;18.260;2022-12-18T10:20:01;89.90;1638.40
49052;DHT22;34866;48.670;18.260;2022-12-18T10:22:42;89.70;1433.60
49052;DHT22;34866;48.670;18.260;2022-12-18T10:28:16;26.00;6451.20
49052;DHT22;34866;48.670;18.260;2022-12-18T10:30:43;102.70;179.20
49052;DHT22;34866;48.670;18.260;2022-12-18T10:33:13;25.70;6451.20
49052;DHT22;34866;48.670;18.260;2022-12-18T10:35:41;51.80;6476.80
49052;DHT22;34866;48.670;18.260;2022-12-18T10:38:28;128.00;6502.40
49052;DHT22;34866;48.670;18.260;2022-12-18T10:43:32;77.40;6476.80
49052;DHT22;34866;48.670;18.260;2022-12-18T10:48:36;26.20;460.80
49052;DHT22;34866;48.670;18.260;2022-12-18T10:51:06;51.80;6476.80
49052;DHT22;34866;48.670;18.260;2022-12-18T10:53:35;13.00;6451.20
49052;DHT22;34866;48.670;18.260;2022-12-18T10:56:03;26.50;6451.20
49052;DHT22;34866;48.670;18.260;2022-12-18T10:58:32;179.60;6502.40
49052;DHT22;34866;48.670;18.260;2022-12-18T11:01:14;154.30;6502.40
49052;DHT22;34866;48.670;18.260;2022-12-18T11:06:18;0.40;6451.20
49052;DHT22;34866;48.670;18.260;2022-12-18T11:09:03;13.30;6451.20
49052;DHT22;34866;48.670;18.260;2022-12-18T11:11:29;25.80;6451.20
49052;DHT22;34866;48.670;18.260;2022-12-18T11:14:03;103.10;6476.80
49052;DHT22;34866;48.670;18.260;2022-12-18T11:16:34;154.30;6502.40
49052;DHT22;34866;48.670;18.260;2022-12-18T11:22:00;205.30;6502.40
49052;DHT22;34866;48.670;18.260;2022-12-18T11:24:33;281.70;6528.00
49052;DHT22;34866;48.670;18.260;2022-12-18T11:27:02;231.20;6502.40
49052;DHT22;34866;48.670;18.260;2022-12-18T11:29:33;231.30;6502.40
49052;DHT22;34866;48.670;18.260;2022-12-18T11:34:52;205.00;6502.40
49052;DHT22;34866;48.670;18.260;2022-12-18T11:37:19;179.40;6502.40
49052;DHT22;34866;48.670;18.260;2022-12-18T11:39:49;205.60;6502.40
49052;DHT22;34866;48.670;18.260;2022-12-18T11:42:28;282.10;6528.00
49052;DHT22;34866;48.670;18.260;2022-12-18T11:50:03;205.30;6502.40
49052;DHT22;34866;48.670;18.260;2022-12-18T11:52:37;179.30;6502.40
49052;DHT22;34866;48.670;18.260;2022-12-18T11:58:12;154.10;6502.40
49052;DHT22;34866;48.670;18.260;2022-12-18T12:04:01;128.50;6502.40
49052;DHT22;34866;48.670;18.260;2022-12-18T12:09:22;256.10;6502.40
49052;DHT22;34866;48.670;18.260;2022-12-18T12:11:57;205.50;6502.40
49052;DHT22;34866;48.670;18.260;2022-12-18T12:20:06;281.80;6528.00
49052;DHT22;34866;48.670;18.260;2022-12-18T12:23:07;256.80;6502.40
49052;DHT22;34866;48.670;18.260;2022-12-18T12:25:48;230.40;6502.40
49052;DHT22;34866;48.670;18.260;2022-12-18T12:34:15;154.00;6502.40
49052;DHT22;34866;48.670;18.260;2022-12-18T12:39:37;205.10;6502.40
49052;DHT22;34866;48.670;18.260;2022-12-18T12:42:24;204.80;6502.40
49052;DHT22;34866;48.670;18.260;2022-12-18T12:45:26;205.00;6502.40
49052;DHT22;34866;48.670;18.260;2022-12-18T12:47:54;154.20;6502.40
49052;DHT22;34866;48.670;18.260;2022-12-18T12:50:33;204.80;6502.40
49052;DHT22;34866;48.670;18.260;2022-12-18T12:53:01;128.00;6502.40
49052;DHT22;34866;48.670;18.260;2022-12-18T12:55:32;128.40;6502.40
49052;DHT22;34866;48.670;18.260;2022-12-18T13:06:19;25.80;6451.20
49052;DHT22;34866;48.670;18.260;2022-12-18T13:08:56;0.80;486.40
49052;DHT22;34866;48.670;18.260;2022-12-18T13:11:40;0.50;6451.20
49052;DHT22;34866;48.670;18.260;2022-12-18T13:14:32;0.80;6451.20
49052;DHT22;34866;48.670;18.260;2022-12-18T13:22:42;102.80;6476.80
49052;DHT22;34866;48.670;18.260;2022-12-18T13:25:44;103.20;6476.80
49052;DHT22;34866;48.670;18.260;2022-12-18T13:28:14;77.60;6476.80
49052;DHT22;34866;48.670;18.260;2022-12-18T13:31:03;103.00;6476.80
49052;DHT22;34866;48.670;18.260;2022-12-18T13:36:16;77.70;6476.80
49052;DHT22;34866;48.670;18.260;2022-12-18T13:38:43;128.00;6502.40
49052;DHT22;34866;48.670;18.260;2022-12-18T13:41:22;102.80;6476.80
49052;DHT22;34866;48.670;18.260;2022-12-18T13:43:49;77.40;6476.80
49052;DHT22;34866;48.670;18.260;2022-12-18T13:46:41;51.50;6476.80
49052;DHT22;34866;48.670;18.260;2022-12-18T13:51:46;51.50;6476.80
49052;DHT22;34866;48.670;18.260;2022-12-18T13:56:55;0.30;6451.20
49052;DHT22;34866;48.670;18.260;2022-12-18T13:59:23;25.70;6451.20
49052;DHT22;34866;48.670;18.260;2022-12-18T14:01:54;0.70;6451.20
49052;DHT22;34866;48.670;18.260;2022-12-18T14:04:29;0.00;6451.20
49052;DHT22;34866;48.670;18.260;2022-12-18T14:07:16;0.00;6451.20
49052;DHT22;34866;48.670;18.260;2022-12-18T14:09:58;12.90;6451.20
49052;DHT22;34866;48.670;18.260;2022-12-18T14:12:27;13.40;6451.20
49052;DHT22;34866;48.670;18.260;2022-12-18T14:15:27;38.40;6451.20
49052;DHT22;34866;48.670;18.260;2022-12-18T14:18:00;13.50;6451.20
49052;DHT22;34866;48.670;18.260;2022-12-18T14:20:27;38.50;6451.20
49052;DHT22;34866;48.670;18.260;2022-12-18T14:22:56;38.80;6451.20
49052;DHT22;34866;48.670;18.260;2022-12-18T14:25:24;38.90;6476.80
49052;DHT22;34866;48.670;18.260;2022-12-18T14:28:12;39.00;179.20
49052;DHT22;34866;48.670;18.260;2022-12-18T14:30:43;39.10;6451.20
49052;DHT22;34866;48.670;18.260;2022-12-18T14:33:15;64.00;6451.20
49052;DHT22;34866;48.670;18.260;2022-12-18T14:36:13;64.00;409.60
49052;DHT22;34866;48.670;18.260;2022-12-18T14:38:41;64.20;716.80
49052;DHT22;34866;48.670;18.260;2022-12-18T14:41:14;64.20;972.80
49052;DHT22;34866;48.670;18.260;2022-12-18T14:43:42;64.30;870.40
49052;DHT22;34866;48.670;18.260;2022-12-18T14:46:28;64.40;1024.00
49052;DHT22;34866;48.670;18.260;2022-12-18T14:48:55;64.50;1305.60
49052;DHT22;34866;48.670;18.260;2022-12-18T14:51:22;64.70;1331.20
49052;DHT22;34866;48.670;18.260;2022-12-18T14:53:54;64.90;1254.40
49052;DHT22;34866;48.670;18.260;2022-12-18T14:58:59;64.80;1561.60
49052;DHT22;34866;48.670;18.260;2022-12-18T15:01:34;64.90;1740.80
49052;DHT22;34866;48.670;18.260;2022-12-18T15:04:04;89.80;2048.00
49052;DHT22;34866;48.670;18.260;2022-12-18T15:06:36;89.70;2176.00
49052;DHT22;34866;48.670;18.260;2022-12-18T15:09:22;89.90;2073.60
49052;DHT22;34866;48.670;18.260;2022-12-18T15:11:48;89.90;2176.00
49052;DHT22;34866;48.670;18.260;2022-12-18T15:17:02;89.90;2048.00
49052;DHT22;34866;48.670;18.260;2022-12-18T15:19:42;89.90;1971.20
49052;DHT22;34866;48.670;18.260;2022-12-18T15:22:28;90.00;2176.00
49052;DHT22;34866;48.670;18.260;2022-12-18T15:24:56;90.10;2176.00
49052;DHT22;34866;48.670;18.260;2022-12-18T15:27:28;90.30;2176.00
49052;DHT22;34866;48.670;18.260;2022-12-18T15:32:36;90.50;2176.00
49052;DHT22;34866;48.670;18.260;2022-12-18T15:35:23;115.20;2176.00
49052;DHT22;34866;48.670;18.260;2022-12-18T15:37:51;115.40;2176.00
49052;DHT22;34866;48.670;18.260;2022-12-18T15:40:22;115.30;2176.00
49052;DHT22;34866;48.670;18.260;2022-12-18T15:42:52;115.40;2176.00
49052;DHT22;34866;48.670;18.260;2022-12-18T15:45:36;115.40;2176.00
49052;DHT22;34866;48.670;18.260;2022-12-18T15:48:22;115.60;2176.00
49052;DHT22;34866;48.670;18.260;2022-12-18T15:50:53;115.70;2176.00
49052;DHT22;34866;48.670;18.260;2022-12-18T15:53:20;115.60;2176.00
49052;DHT22;34866;48.670;18.260;2022-12-18T15:55:46;115.60;2176.00
49052;DHT22;34866;48.670;18.260;2022-12-18T15:58:30;115.60;2176.00
49052;DHT22;34866;48.670;18.260;2022-12-18T16:00:57;115.70;2176.00
49052;DHT22;34866;48.670;18.260;2022-12-18T16:03:23;115.70;2176.00
49052;DHT22;34866;48.670;18.260;2022-12-18T16:05:49;115.80;2176.00
49052;DHT22;34866;48.670;18.260;2022-12-18T16:08:15;115.80;2176.00
49052;DHT22;34866;48.670;18.260;2022-12-18T16:10:40;115.80;2176.00
49052;DHT22;34866;48.670;18.260;2022-12-18T16:13:10;115.90;2176.00
49052;DHT22;34866;48.670;18.260;2022-12-18T16:15:36;116.00;2176.00
49052;DHT22;34866;48.670;18.260;2022-12-18T16:18:01;116.00;2176.00
49052;DHT22;34866;48.670;18.260;2022-12-18T16:20:27;116.00;2176.00
49052;DHT22;34866;48.670;18.260;2022-12-18T16:22:53;116.00;2176.00
49052;DHT22;34866;48.670;18.260;2022-12-18T16:25:21;116.00;2176.00
49052;DHT22;34866;48.670;18.260;2022-12-18T16:27:47;116.00;2176.00
49052;DHT22;34866;48.670;18.260;2022-12-18T16:30:19;116.00;2176.00
49052;DHT22;34866;48.670;18.260;2022-12-18T16:32:45;116.00;2176.00
49052;DHT22;34866;48.670;18.260;2022-12-18T16:35:15;140.80;2176.00
49052;DHT22;34866;48.670;18.260;2022-12-18T16:37:41;140.80;2176.00
49052;DHT22;34866;48.670;18.260;2022-12-18T16:40:11;140.80;2176.00
49052;DHT22;34866;48.670;18.260;2022-12-18T16:42:38;141.00;2176.00
49052;DHT22;34866;48.670;18.260;2022-12-18T16:45:05;141.00;2176.00
49052;DHT22;34866;48.670;18.260;2022-12-18T16:47:32;141.20;2176.00
49052;DHT22;34866;48.670;18.260;2022-12-18T16:49:58;141.20;2176.00